createdAt,value
2023-02-13T00:01:11.116Z,14.40
2023-02-13T00:03:39.465Z,14.17
2023-02-13T00:06:08.498Z,19.70
2023-02-13T00:08:37.096Z,12.33
2023-02-13T00:11:07.195Z,13.53
2023-02-13T00:13:35.590Z,13.07
2023-02-13T00:16:04.914Z,12.60
2023-02-13T00:18:35.441Z,14.03
2023-02-13T00:21:05.203Z,12.83
2023-02-13T00:23:33.917Z,16.77
2023-02-13T00:26:02.712Z,13.60
2023-02-13T00:28:32.416Z,16.17
2023-02-13T00:31:06.243Z,13.37
2023-02-13T00:33:34.668Z,20.53
2023-02-13T00:36:08.051Z,15.67
2023-02-13T00:38:36.387Z,12.57
2023-02-13T00:41:04.789Z,10.50
2023-02-13T00:43:34.449Z,9.97
2023-02-13T00:46:03.997Z,9.80
2023-02-13T00:48:33.726Z,9.23
2023-02-13T00:51:02.136Z,11.53
2023-02-13T00:53:31.897Z,9.80
2023-02-13T00:56:00.119Z,9.27
2023-02-13T00:58:28.577Z,19.67
2023-02-13T01:00:58.539Z,8.50
2023-02-13T01:03:27.364Z,8.77
2023-02-13T01:05:56.743Z,8.57
2023-02-13T01:08:25.740Z,8.40
2023-02-13T01:10:54.020Z,8.17
2023-02-13T01:13:22.307Z,7.73
2023-02-13T01:15:50.846Z,7.77
2023-02-13T01:18:21.184Z,6.97
2023-02-13T01:20:58.550Z,7.83
2023-02-13T01:23:27.197Z,8.63
2023-02-13T01:25:55.457Z,9.10
2023-02-13T01:28:23.810Z,12.07
2023-02-13T01:30:55.855Z,7.97
2023-02-13T01:33:27.491Z,9.23
2023-02-13T01:35:55.746Z,10.70
2023-02-13T01:38:24.049Z,11.93
2023-02-13T01:40:53.391Z,10.17
2023-02-13T01:43:23.627Z,8.03
2023-02-13T01:45:53.117Z,8.80
2023-02-13T01:48:22.528Z,8.83
2023-02-13T01:50:55.255Z,8.60
2023-02-13T01:53:27.448Z,7.87
2023-02-13T01:55:56.891Z,12.70
2023-02-13T01:58:26.639Z,16.70
2023-02-13T02:00:55.199Z,8.63
2023-02-13T02:03:25.855Z,7.70
2023-02-13T02:05:55.575Z,7.70
2023-02-13T02:08:24.737Z,8.33
2023-02-13T02:10:56.612Z,9.27
2023-02-13T02:13:25.726Z,8.23
2023-02-13T02:15:55.391Z,7.67
2023-02-13T02:18:24.540Z,7.33
2023-02-13T02:21:20.785Z,6.87
2023-02-13T02:24:04.802Z,6.70
2023-02-13T02:26:52.767Z,6.80
2023-02-13T02:29:50.648Z,7.00
2023-02-13T02:32:25.986Z,6.10
2023-02-13T02:34:57.834Z,6.23
2023-02-13T02:37:34.446Z,6.70
2023-02-13T02:40:08.914Z,7.63
2023-02-13T02:42:41.089Z,7.80
2023-02-13T02:45:11.069Z,6.83
2023-02-13T02:48:01.275Z,5.83
2023-02-13T02:50:35.790Z,6.27
2023-02-13T02:53:09.647Z,6.47
2023-02-13T02:55:43.899Z,6.30
2023-02-13T02:58:34.819Z,5.57
2023-02-13T03:01:21.217Z,6.40
2023-02-13T03:04:10.105Z,5.90
2023-02-13T03:06:42.053Z,4.83
2023-02-13T03:09:29.652Z,5.20
2023-02-13T03:12:15.350Z,5.83
2023-02-13T03:14:44.435Z,5.83
2023-02-13T03:17:30.663Z,4.83
2023-02-13T03:20:32.498Z,5.60
2023-02-13T03:23:07.844Z,6.27
2023-02-13T03:25:38.378Z,6.53
2023-02-13T03:28:29.488Z,6.37
2023-02-13T03:31:04.661Z,7.43
2023-02-13T03:33:41.984Z,9.13
2023-02-13T03:36:49.637Z,7.00
2023-02-13T03:39:21.109Z,7.37
2023-02-13T03:41:51.911Z,7.47
2023-02-13T03:44:22.284Z,6.80
2023-02-13T03:46:51.686Z,7.73
2023-02-13T03:49:38.995Z,7.90
2023-02-13T03:52:10.538Z,6.33
2023-02-13T03:54:58.573Z,6.87
2023-02-13T03:57:44.397Z,6.30
2023-02-13T04:00:14.549Z,6.00
2023-02-13T04:02:49.830Z,5.83
2023-02-13T04:05:19.863Z,6.87
2023-02-13T04:07:49.711Z,6.50
2023-02-13T04:10:18.617Z,8.37
2023-02-13T04:12:52.197Z,15.90
2023-02-13T04:15:22.340Z,9.37
2023-02-13T04:17:52.842Z,8.60
2023-02-13T04:20:21.670Z,7.30
2023-02-13T04:22:51.373Z,6.67
2023-02-13T04:25:19.727Z,6.93
2023-02-13T04:27:48.274Z,8.00
2023-02-13T04:30:16.812Z,6.30
2023-02-13T04:32:45.114Z,6.27
2023-02-13T04:35:14.815Z,6.17
2023-02-13T04:37:43.050Z,6.80
2023-02-13T04:40:13.345Z,5.10
2023-02-13T04:42:52.093Z,5.83
2023-02-13T04:45:20.304Z,5.93
2023-02-13T04:47:51.647Z,6.17
2023-02-13T04:50:20.101Z,6.20
2023-02-13T04:52:48.411Z,7.50
2023-02-13T04:55:19.475Z,6.20
2023-02-13T04:57:48.387Z,5.50
2023-02-13T05:00:17.175Z,5.73
2023-02-13T05:02:45.477Z,5.13
2023-02-13T05:05:13.748Z,9.77
2023-02-13T05:07:42.720Z,5.33
2023-02-13T05:10:11.773Z,7.00
2023-02-13T05:12:41.451Z,7.20
2023-02-13T05:15:11.212Z,6.07
2023-02-13T05:17:39.548Z,6.13
2023-02-13T05:20:08.973Z,5.30
2023-02-13T05:22:55.257Z,5.83
2023-02-13T05:25:23.637Z,5.70
2023-02-13T05:27:53.299Z,5.23
2023-02-13T05:30:21.791Z,6.80
2023-02-13T05:32:50.900Z,5.90
2023-02-13T05:35:19.309Z,5.77
2023-02-13T05:37:48.216Z,9.97
2023-02-13T05:40:16.845Z,7.53
2023-02-13T05:42:45.217Z,5.70
2023-02-13T05:45:16.205Z,6.43
2023-02-13T05:47:44.569Z,7.60
2023-02-13T05:50:13.254Z,6.93
2023-02-13T05:52:41.764Z,6.67
2023-02-13T05:55:10.005Z,7.40
2023-02-13T05:57:38.286Z,7.70
2023-02-13T06:00:07.911Z,7.80
2023-02-13T06:02:37.584Z,5.10
2023-02-13T06:05:06.885Z,5.50
2023-02-13T06:07:35.414Z,6.60
2023-02-13T06:10:03.971Z,5.13
2023-02-13T06:12:32.204Z,5.43
2023-02-13T06:15:00.515Z,4.63
2023-02-13T06:17:28.995Z,5.03
2023-02-13T06:19:58.681Z,4.47
2023-02-13T06:22:27.003Z,4.23
2023-02-13T06:24:55.273Z,4.67
2023-02-13T06:27:23.688Z,4.83
2023-02-13T06:29:51.961Z,4.70
2023-02-13T06:32:20.518Z,5.80
2023-02-13T06:34:48.826Z,5.07
2023-02-13T06:37:18.750Z,4.10
2023-02-13T06:39:47.020Z,4.53
2023-02-13T06:42:15.222Z,4.23
2023-02-13T06:44:43.765Z,4.53
2023-02-13T06:47:11.917Z,4.60
2023-02-13T06:49:40.126Z,5.00
2023-02-13T06:52:11.159Z,4.30
2023-02-13T06:54:47.593Z,4.93
2023-02-13T06:57:16.871Z,4.80
2023-02-13T06:59:45.870Z,4.80
2023-02-13T07:02:14.948Z,4.90
2023-02-13T07:04:43.302Z,4.37
2023-02-13T07:07:11.585Z,4.90
2023-02-13T07:09:42.489Z,4.77
2023-02-13T07:12:11.477Z,4.73
2023-02-13T07:14:40.202Z,6.20
2023-02-13T07:17:08.865Z,13.23
2023-02-13T07:19:37.522Z,9.93
2023-02-13T07:22:05.805Z,8.97
2023-02-13T07:24:35.497Z,10.67
2023-02-13T07:27:06.316Z,14.53
2023-02-13T07:29:36.024Z,13.47
2023-02-13T07:32:05.388Z,16.27
2023-02-13T07:34:34.441Z,18.33
2023-02-13T07:37:03.107Z,17.27
2023-02-13T07:39:33.023Z,20.10
2023-02-13T07:42:01.293Z,19.40
2023-02-13T07:44:31.629Z,18.70
2023-02-13T07:47:01.252Z,17.30
2023-02-13T07:49:29.491Z,17.70
2023-02-13T07:51:59.317Z,20.63
2023-02-13T07:54:27.900Z,18.43
2023-02-13T07:56:59.558Z,18.37
2023-02-13T07:59:27.911Z,17.53
2023-02-13T08:01:57.803Z,16.40
2023-02-13T08:04:26.545Z,15.63
2023-02-13T08:06:54.794Z,15.90
2023-02-13T08:09:41.098Z,16.60
2023-02-13T08:12:09.934Z,16.00
2023-02-13T08:14:38.224Z,17.83
2023-02-13T08:17:08.465Z,19.03
2023-02-13T08:19:37.256Z,19.80
2023-02-13T08:22:05.849Z,20.60
2023-02-13T08:24:34.395Z,20.77
2023-02-13T08:27:03.040Z,16.77
2023-02-13T08:29:31.616Z,14.90
2023-02-13T08:32:00.838Z,14.50
2023-02-13T08:34:30.937Z,14.40
2023-02-13T08:36:59.522Z,12.63
2023-02-13T08:39:28.122Z,9.33
2023-02-13T08:41:56.521Z,10.20
2023-02-13T08:44:25.086Z,13.37
2023-02-13T08:46:53.885Z,12.33
2023-02-13T08:49:23.522Z,10.67
2023-02-13T08:51:53.217Z,12.40
2023-02-13T08:54:21.533Z,15.20
2023-02-13T08:56:50.333Z,14.10
2023-02-13T08:59:19.107Z,9.17
2023-02-13T09:01:47.939Z,13.53
2023-02-13T09:04:18.262Z,9.80
2023-02-13T09:06:46.931Z,8.23
2023-02-13T09:09:17.803Z,13.60
2023-02-13T09:11:46.884Z,10.30
2023-02-13T09:14:15.228Z,8.67
2023-02-13T09:16:43.979Z,9.67
2023-02-13T09:19:12.277Z,9.80
2023-02-13T09:21:40.890Z,7.33
2023-02-13T09:24:10.231Z,6.53
2023-02-13T09:26:39.954Z,12.33
2023-02-13T09:29:08.244Z,6.97
2023-02-13T09:31:36.702Z,5.10
2023-02-13T09:34:05.078Z,7.97
2023-02-13T09:36:34.567Z,7.93
2023-02-13T09:39:03.499Z,5.00
2023-02-13T09:41:33.803Z,3.70
2023-02-13T09:45:03.814Z,4.00
2023-02-13T09:47:34.367Z,3.00
2023-02-13T09:50:05.496Z,3.87
2023-02-13T09:52:34.711Z,3.30
2023-02-13T09:55:03.246Z,3.53
2023-02-13T09:57:34.645Z,9.23
2023-02-13T10:00:12.149Z,6.67
2023-02-13T10:02:51.480Z,7.20
2023-02-13T10:05:25.519Z,4.60
2023-02-13T10:07:58.617Z,4.63
2023-02-13T10:10:30.549Z,2.77
2023-02-13T10:13:04.895Z,3.47
2023-02-13T10:15:37.213Z,3.70
2023-02-13T10:18:08.385Z,3.80
2023-02-13T10:20:38.863Z,6.23
2023-02-13T10:23:14.127Z,4.27
2023-02-13T10:25:45.816Z,2.47
2023-02-13T10:28:16.239Z,2.47
2023-02-13T10:30:48.365Z,2.50
2023-02-13T10:33:20.149Z,2.63
2023-02-13T10:35:51.637Z,2.40
2023-02-13T10:38:21.195Z,2.80
2023-02-13T10:41:00.332Z,3.10
2023-02-13T10:43:29.598Z,2.80
2023-02-13T10:46:02.556Z,2.33
2023-02-13T10:48:50.036Z,2.30
2023-02-13T10:51:20.763Z,2.70
2023-02-13T10:53:55.040Z,3.40
2023-02-13T10:56:28.426Z,2.70
2023-02-13T10:59:19.053Z,2.40
2023-02-13T11:01:50.899Z,2.80
2023-02-13T11:04:20.933Z,3.20
2023-02-13T11:06:55.610Z,2.90
2023-02-13T11:09:23.910Z,2.77
2023-02-13T11:11:52.883Z,2.80
2023-02-13T11:14:22.443Z,2.60
2023-02-13T11:17:00.700Z,2.90
2023-02-13T11:19:34.432Z,2.77
2023-02-13T11:22:04.841Z,2.60
2023-02-13T11:24:33.135Z,3.20
2023-02-13T11:27:04.635Z,2.70
2023-02-13T11:29:34.744Z,2.43
2023-02-13T11:32:20.714Z,2.73
2023-02-13T11:34:51.938Z,2.30
2023-02-13T11:37:28.779Z,2.47
2023-02-13T11:39:58.106Z,3.37
2023-02-13T11:42:29.478Z,2.60
2023-02-13T11:45:00.438Z,2.90
2023-02-13T11:47:34.340Z,2.53
2023-02-13T11:50:04.848Z,2.63
2023-02-13T11:52:34.332Z,2.63
2023-02-13T11:55:07.940Z,2.97
2023-02-13T11:57:36.776Z,2.90
2023-02-13T12:00:31.373Z,3.10
2023-02-13T12:02:59.747Z,2.63
2023-02-13T12:05:29.824Z,2.90
2023-02-13T12:08:01.378Z,3.53
2023-02-13T12:10:30.272Z,2.93
2023-02-13T12:12:59.958Z,3.50
2023-02-13T12:15:30.012Z,3.10
2023-02-13T12:18:11.813Z,3.60
2023-02-13T12:20:46.556Z,3.40
2023-02-13T12:23:23.305Z,3.20
2023-02-13T12:26:00.713Z,3.07
2023-02-13T12:28:33.726Z,3.53
2023-02-13T12:31:45.856Z,3.20
2023-02-13T12:34:34.691Z,2.90
2023-02-13T12:37:13.723Z,2.97
2023-02-13T12:39:43.306Z,3.00
2023-02-13T12:42:21.790Z,3.50
2023-02-13T12:44:55.275Z,2.80
2023-02-13T12:47:25.065Z,3.00
2023-02-13T12:50:20.629Z,3.03
2023-02-13T12:52:56.465Z,2.73
2023-02-13T12:55:35.099Z,3.03
2023-02-13T12:58:10.614Z,2.87
2023-02-13T13:00:45.086Z,2.80
2023-02-13T13:03:38.272Z,3.33
2023-02-13T13:06:15.629Z,3.33
2023-02-13T13:08:54.279Z,3.10
2023-02-13T13:11:33.344Z,3.23
2023-02-13T13:14:05.337Z,3.73
2023-02-13T13:16:43.068Z,3.47
2023-02-13T13:19:15.746Z,3.37
2023-02-13T13:21:47.594Z,3.40
2023-02-13T13:24:25.549Z,3.60
2023-02-13T13:26:57.360Z,3.10
2023-02-13T13:29:31.202Z,3.03
2023-02-13T13:32:02.705Z,3.50
2023-02-13T13:34:30.962Z,3.67
2023-02-13T13:37:02.072Z,3.80
2023-02-13T13:39:43.270Z,3.63
2023-02-13T13:42:14.882Z,4.10
2023-02-13T13:44:57.034Z,3.10
2023-02-13T13:47:28.891Z,3.10
2023-02-13T13:49:57.672Z,3.23
2023-02-13T13:52:28.012Z,3.70
2023-02-13T13:55:00.331Z,3.80
2023-02-13T13:57:28.569Z,4.00
2023-02-13T14:00:27.323Z,4.50
2023-02-13T14:03:23.056Z,3.83
2023-02-13T14:06:10.138Z,3.50
2023-02-13T14:09:07.387Z,4.27
2023-02-13T14:11:41.859Z,3.07
2023-02-13T14:14:52.676Z,3.60
2023-02-13T14:17:52.725Z,4.10
2023-02-13T14:20:40.501Z,3.77
2023-02-13T14:23:17.013Z,4.10
2023-02-13T14:25:45.292Z,4.30
2023-02-13T14:28:23.036Z,3.93
2023-02-13T14:30:52.760Z,4.13
2023-02-13T14:33:28.094Z,4.03
2023-02-13T14:36:04.465Z,3.23
2023-02-13T14:38:32.978Z,3.30
2023-02-13T14:41:01.610Z,2.87
2023-02-13T14:43:51.757Z,2.87
2023-02-13T14:46:24.889Z,3.03
2023-02-13T14:48:56.677Z,3.60
2023-02-13T14:51:29.803Z,3.37
2023-02-13T14:54:01.389Z,4.03
2023-02-13T14:56:30.753Z,3.00
2023-02-13T14:59:06.969Z,2.90
2023-02-13T15:01:36.196Z,2.80
2023-02-13T15:04:08.658Z,3.23
2023-02-13T15:06:39.124Z,2.73
2023-02-13T15:09:21.237Z,2.93
2023-02-13T15:11:49.655Z,3.30
2023-02-13T15:14:27.370Z,2.90
2023-02-13T15:16:57.400Z,3.07
2023-02-13T15:19:26.327Z,2.90
2023-02-13T15:21:56.581Z,3.10
2023-02-13T15:24:24.908Z,2.97
2023-02-13T15:27:03.887Z,3.17
2023-02-13T15:29:47.868Z,3.00
2023-02-13T15:32:21.473Z,3.10
2023-02-13T15:34:50.640Z,3.10
2023-02-13T15:37:22.868Z,2.93
2023-02-13T15:39:51.616Z,3.10
2023-02-13T15:42:20.483Z,3.17
2023-02-13T15:44:51.549Z,3.30
2023-02-13T15:47:22.574Z,3.80
2023-02-13T15:49:51.295Z,3.43
2023-02-13T15:52:21.838Z,2.70
2023-02-13T15:54:50.624Z,3.10
2023-02-13T15:57:19.867Z,3.70
2023-02-13T15:59:48.395Z,3.50
2023-02-13T16:02:19.764Z,4.07
2023-02-13T16:04:48.302Z,3.83
2023-02-13T16:07:16.561Z,3.67
2023-02-13T16:09:45.182Z,4.03
2023-02-13T16:12:22.956Z,3.83
2023-02-13T16:14:54.009Z,4.40
2023-02-13T16:17:29.427Z,4.60
2023-02-13T16:20:00.613Z,4.00
2023-02-13T16:22:34.657Z,4.33
2023-02-13T16:25:17.429Z,3.60
2023-02-13T16:27:46.548Z,4.43
2023-02-13T16:30:41.247Z,3.73
2023-02-13T16:33:24.348Z,3.57
2023-02-13T16:35:55.452Z,4.03
2023-02-13T16:38:29.354Z,4.37
2023-02-13T16:40:58.515Z,4.00
2023-02-13T16:43:54.327Z,4.10
2023-02-13T16:46:26.430Z,4.30
2023-02-13T16:49:27.071Z,4.20
2023-02-13T16:52:00.668Z,4.40
2023-02-13T16:54:35.441Z,4.00
2023-02-13T16:57:05.503Z,4.77
2023-02-13T16:59:37.333Z,4.17
2023-02-13T17:02:19.520Z,4.70
2023-02-13T17:04:50.994Z,4.23
2023-02-13T17:07:24.495Z,4.77
2023-02-13T17:10:01.121Z,4.43
2023-02-13T17:12:30.445Z,4.37
2023-02-13T17:14:59.755Z,5.00
2023-02-13T17:17:28.657Z,4.40
2023-02-13T17:19:58.878Z,3.83
2023-02-13T17:22:33.743Z,4.03
2023-02-13T17:25:02.550Z,3.80
2023-02-13T17:27:31.141Z,5.00
2023-02-13T17:29:59.949Z,4.50
2023-02-13T17:32:29.624Z,4.97
2023-02-13T17:34:59.581Z,4.13
2023-02-13T17:37:29.128Z,4.10
2023-02-13T17:39:57.467Z,3.80
2023-02-13T17:42:26.288Z,4.40
2023-02-13T17:44:54.848Z,6.97
2023-02-13T17:47:23.599Z,8.80
2023-02-13T17:49:55.166Z,6.73
2023-02-13T17:52:28.717Z,6.80
2023-02-13T17:54:57.137Z,7.33
2023-02-13T17:57:25.739Z,7.83
2023-02-13T17:59:53.960Z,11.37
2023-02-13T18:02:23.477Z,11.17
2023-02-13T18:04:51.748Z,9.30
2023-02-13T18:07:21.281Z,9.20
2023-02-13T18:09:51.159Z,8.67
2023-02-13T18:12:21.361Z,7.60
2023-02-13T18:14:50.817Z,6.63
2023-02-13T18:17:19.149Z,6.93
2023-02-13T18:19:55.816Z,7.53
2023-02-13T18:22:24.460Z,7.23
2023-02-13T18:24:54.295Z,6.90
2023-02-13T18:27:23.250Z,5.50
2023-02-13T18:29:51.550Z,4.83
2023-02-13T18:32:19.840Z,4.20
2023-02-13T18:34:48.616Z,4.50
2023-02-13T18:37:17.187Z,5.80
2023-02-13T18:39:46.031Z,4.77
2023-02-13T18:42:16.920Z,4.80
2023-02-13T18:44:45.699Z,5.53
2023-02-13T18:47:14.020Z,7.00
2023-02-13T18:49:42.654Z,8.87
2023-02-13T18:52:11.315Z,9.87
2023-02-13T18:54:40.277Z,9.53
2023-02-13T18:57:08.655Z,10.23
2023-02-13T18:59:39.008Z,10.10
2023-02-13T19:02:07.637Z,10.80
2023-02-13T19:04:36.650Z,11.07
2023-02-13T19:07:05.311Z,11.03
2023-02-13T19:09:35.535Z,11.20
2023-02-13T19:12:04.217Z,11.17
2023-02-13T19:14:32.814Z,10.37
2023-02-13T19:17:02.720Z,10.47
2023-02-13T19:19:31.623Z,10.13
2023-02-13T19:22:00.552Z,10.37
2023-02-13T19:24:29.112Z,10.17
2023-02-13T19:26:57.822Z,10.60
2023-02-13T19:29:26.420Z,10.13
2023-02-13T19:31:54.677Z,10.30
2023-02-13T19:34:25.542Z,10.97
2023-02-13T19:36:54.408Z,10.87
2023-02-13T19:39:23.029Z,11.60
2023-02-13T19:41:51.576Z,10.97
2023-02-13T19:44:20.101Z,11.77
2023-02-13T19:46:49.384Z,10.90
2023-02-13T19:49:19.253Z,10.63
2023-02-13T19:51:49.284Z,10.30
2023-02-13T19:54:17.581Z,9.93
2023-02-13T19:56:47.592Z,9.37
2023-02-13T19:59:15.915Z,8.90
2023-02-13T20:01:45.745Z,9.33
2023-02-13T20:04:14.985Z,8.73
2023-02-13T20:06:43.599Z,9.90
2023-02-13T20:09:14.346Z,8.47
2023-02-13T20:11:43.046Z,8.93
2023-02-13T20:14:14.961Z,9.37
2023-02-13T20:16:45.680Z,11.90
2023-02-13T20:19:14.445Z,13.63
2023-02-13T20:21:43.437Z,15.87
2023-02-13T20:24:13.350Z,17.03
2023-02-13T20:26:41.768Z,16.97
2023-02-13T20:29:10.951Z,15.20
2023-02-13T20:31:41.593Z,11.07
2023-02-13T20:34:10.407Z,13.70
2023-02-13T20:36:38.709Z,12.57
2023-02-13T20:39:07.828Z,13.53
2023-02-13T20:41:38.317Z,11.40
2023-02-13T20:44:08.154Z,10.77
2023-02-13T20:46:37.673Z,11.77
2023-02-13T20:49:06.088Z,10.20
2023-02-13T20:51:34.545Z,10.00
2023-02-13T20:54:02.776Z,8.97
2023-02-13T20:56:31.653Z,9.33
2023-02-13T20:59:02.615Z,9.93
2023-02-13T21:01:32.412Z,10.07
2023-02-13T21:04:01.198Z,8.33
2023-02-13T21:06:31.280Z,8.87
2023-02-13T21:08:59.715Z,10.00
2023-02-13T21:11:29.468Z,9.53
2023-02-13T21:13:58.177Z,9.03
2023-02-13T21:16:28.754Z,9.20
2023-02-13T21:18:58.012Z,9.70
2023-02-13T21:21:27.227Z,9.93
2023-02-13T21:23:55.639Z,10.57
2023-02-13T21:26:24.680Z,11.40
2023-02-13T21:28:53.266Z,10.40
2023-02-13T21:31:23.848Z,10.27
2023-02-13T21:33:54.113Z,9.63
2023-02-13T21:36:22.578Z,9.63
2023-02-13T21:38:51.795Z,9.97
2023-02-13T21:41:20.518Z,10.33
2023-02-13T21:43:50.010Z,9.30
2023-02-13T21:46:19.783Z,8.93
2023-02-13T21:48:48.571Z,8.40
2023-02-13T21:51:20.412Z,9.10
2023-02-13T21:53:51.712Z,9.50
2023-02-13T21:56:21.322Z,8.70
2023-02-13T21:58:49.685Z,9.17
2023-02-13T22:01:26.109Z,9.30
2023-02-13T22:03:55.012Z,8.70
2023-02-13T22:06:25.298Z,9.70
2023-02-13T22:08:57.664Z,8.73
2023-02-13T22:11:26.132Z,9.17
2023-02-13T22:13:56.537Z,8.83
2023-02-13T22:16:25.215Z,8.20
2023-02-13T22:18:53.633Z,8.33
2023-02-13T22:21:25.184Z,8.40
2023-02-13T22:23:54.011Z,9.37
2023-02-13T22:26:23.304Z,8.73
2023-02-13T22:28:52.217Z,8.10
2023-02-13T22:31:22.361Z,7.77
2023-02-13T22:34:03.064Z,8.17
2023-02-13T22:36:34.081Z,7.73
2023-02-13T22:39:02.547Z,8.53
2023-02-13T22:41:31.674Z,8.73
2023-02-13T22:44:00.856Z,7.57
2023-02-13T22:46:30.682Z,7.93
2023-02-13T22:48:59.084Z,8.00
2023-02-13T22:51:28.865Z,8.70
2023-02-13T22:53:59.328Z,8.73
2023-02-13T22:56:28.052Z,8.90
2023-02-13T22:58:56.330Z,8.50
2023-02-13T23:01:26.143Z,9.47
2023-02-13T23:03:54.504Z,9.10
2023-02-13T23:06:22.987Z,8.83
2023-02-13T23:08:53.626Z,8.27
2023-02-13T23:11:42.037Z,8.30
2023-02-13T23:14:11.055Z,9.90
2023-02-13T23:16:53.155Z,10.20
2023-02-13T23:19:21.872Z,8.83
2023-02-13T23:21:50.324Z,8.67
2023-02-13T23:24:19.022Z,8.77
2023-02-13T23:26:48.757Z,9.03
2023-02-13T23:29:17.682Z,8.00
2023-02-13T23:31:46.640Z,8.33
2023-02-13T23:34:15.020Z,8.63
2023-02-13T23:36:43.312Z,8.77
2023-02-13T23:39:11.703Z,8.87
2023-02-13T23:41:40.394Z,8.13
2023-02-13T23:44:10.731Z,7.90
2023-02-13T23:46:39.284Z,8.20
2023-02-13T23:49:07.981Z,8.77
2023-02-13T23:51:36.698Z,8.07
2023-02-13T23:54:05.767Z,8.27
2023-02-13T23:56:34.527Z,9.17
2023-02-13T23:59:03.868Z,7.90
